sensor_id;sensor_type;location;lat;lon;timestamp;P1;durP1;ratioP1;P2;durP2;ratioP2
60026;SDS011;45891;53.006;6.512;2022-08-21T00:01:18;14.80;;;4.20;;
60026;SDS011;45891;53.006;6.512;2022-08-21T00:03:47;12.85;;;4.00;;
60026;SDS011;45891;53.006;6.512;2022-08-21T00:06:14;12.38;;;3.92;;
60026;SDS011;45891;53.006;6.512;2022-08-21T00:08:40;14.20;;;4.20;;
60026;SDS011;45891;53.006;6.512;2022-08-21T00:11:07;11.67;;;4.43;;
60026;SDS011;45891;53.006;6.512;2022-08-21T00:13:33;13.00;;;4.10;;
60026;SDS011;45891;53.006;6.512;2022-08-21T00:16:00;10.45;;;4.00;;
60026;SDS011;45891;53.006;6.512;2022-08-21T00:18:28;13.23;;;4.20;;
60026;SDS011;45891;53.006;6.512;2022-08-21T00:20:54;14.88;;;4.55;;
60026;SDS011;45891;53.006;6.512;2022-08-21T00:23:20;12.57;;;4.10;;
60026;SDS011;45891;53.006;6.512;2022-08-21T00:25:47;14.65;;;4.45;;
60026;SDS011;45891;53.006;6.512;2022-08-21T00:28:14;11.57;;;4.30;;
60026;SDS011;45891;53.006;6.512;2022-08-21T00:30:40;14.25;;;4.25;;
60026;SDS011;45891;53.006;6.512;2022-08-21T00:33:07;12.10;;;4.13;;
60026;SDS011;45891;53.006;6.512;2022-08-21T00:35:35;14.73;;;4.55;;
60026;SDS011;45891;53.006;6.512;2022-08-21T00:38:05;11.43;;;4.10;;
60026;SDS011;45891;53.006;6.512;2022-08-21T00:40:37;12.82;;;4.18;;
60026;SDS011;45891;53.006;6.512;2022-08-21T00:43:15;12.20;;;4.35;;
60026;SDS011;45891;53.006;6.512;2022-08-21T00:45:44;9.77;;;3.65;;
60026;SDS011;45891;53.006;6.512;2022-08-21T00:48:10;11.65;;;4.20;;
60026;SDS011;45891;53.006;6.512;2022-08-21T00:50:38;14.23;;;4.32;;
60026;SDS011;45891;53.006;6.512;2022-08-21T00:53:09;11.63;;;4.45;;
60026;SDS011;45891;53.006;6.512;2022-08-21T00:55:37;15.25;;;4.50;;
60026;SDS011;45891;53.006;6.512;2022-08-21T00:58:04;12.68;;;4.75;;
60026;SDS011;45891;53.006;6.512;2022-08-21T01:00:34;12.77;;;4.40;;
60026;SDS011;45891;53.006;6.512;2022-08-21T01:03:06;13.00;;;4.68;;
60026;SDS011;45891;53.006;6.512;2022-08-21T01:05:35;13.40;;;4.38;;
60026;SDS011;45891;53.006;6.512;2022-08-21T01:08:01;12.45;;;4.13;;
60026;SDS011;45891;53.006;6.512;2022-08-21T01:10:29;11.75;;;4.10;;
60026;SDS011;45891;53.006;6.512;2022-08-21T01:12:56;13.30;;;4.60;;
60026;SDS011;45891;53.006;6.512;2022-08-21T01:15:25;13.27;;;4.82;;
60026;SDS011;45891;53.006;6.512;2022-08-21T01:17:56;15.33;;;4.73;;
60026;SDS011;45891;53.006;6.512;2022-08-21T01:20:23;11.00;;;4.07;;
60026;SDS011;45891;53.006;6.512;2022-08-21T01:22:49;10.30;;;4.70;;
60026;SDS011;45891;53.006;6.512;2022-08-21T01:25:16;12.63;;;4.88;;
60026;SDS011;45891;53.006;6.512;2022-08-21T01:27:45;12.82;;;4.50;;
60026;SDS011;45891;53.006;6.512;2022-08-21T01:30:13;12.63;;;5.13;;
60026;SDS011;45891;53.006;6.512;2022-08-21T01:32:42;14.07;;;5.43;;
60026;SDS011;45891;53.006;6.512;2022-08-21T01:35:09;11.50;;;4.82;;
60026;SDS011;45891;53.006;6.512;2022-08-21T01:37:37;14.55;;;5.43;;
60026;SDS011;45891;53.006;6.512;2022-08-21T01:40:04;13.93;;;5.47;;
60026;SDS011;45891;53.006;6.512;2022-08-21T01:42:31;13.93;;;5.25;;
60026;SDS011;45891;53.006;6.512;2022-08-21T01:44:57;13.35;;;5.85;;
60026;SDS011;45891;53.006;6.512;2022-08-21T01:47:24;13.60;;;5.32;;
60026;SDS011;45891;53.006;6.512;2022-08-21T01:49:50;11.60;;;5.40;;
60026;SDS011;45891;53.006;6.512;2022-08-21T01:52:17;16.25;;;5.50;;
60026;SDS011;45891;53.006;6.512;2022-08-21T01:54:43;13.65;;;5.20;;
60026;SDS011;45891;53.006;6.512;2022-08-21T01:57:11;14.38;;;5.82;;
60026;SDS011;45891;53.006;6.512;2022-08-21T01:59:37;15.27;;;5.85;;
60026;SDS011;45891;53.006;6.512;2022-08-21T02:02:04;12.90;;;5.30;;
60026;SDS011;45891;53.006;6.512;2022-08-21T02:04:31;13.68;;;5.57;;
60026;SDS011;45891;53.006;6.512;2022-08-21T02:06:58;14.20;;;5.82;;
60026;SDS011;45891;53.006;6.512;2022-08-21T02:09:26;13.85;;;5.85;;
60026;SDS011;45891;53.006;6.512;2022-08-21T02:11:52;15.32;;;6.22;;
60026;SDS011;45891;53.006;6.512;2022-08-21T02:14:19;12.82;;;5.80;;
60026;SDS011;45891;53.006;6.512;2022-08-21T02:16:45;14.07;;;6.35;;
60026;SDS011;45891;53.006;6.512;2022-08-21T02:19:13;12.52;;;5.72;;
60026;SDS011;45891;53.006;6.512;2022-08-21T02:21:40;17.23;;;6.43;;
60026;SDS011;45891;53.006;6.512;2022-08-21T02:24:07;15.27;;;6.47;;
60026;SDS011;45891;53.006;6.512;2022-08-21T02:26:34;15.57;;;6.80;;
60026;SDS011;45891;53.006;6.512;2022-08-21T02:29:02;14.10;;;6.18;;
60026;SDS011;45891;53.006;6.512;2022-08-21T02:31:28;14.93;;;6.13;;
60026;SDS011;45891;53.006;6.512;2022-08-21T02:33:54;13.68;;;6.60;;
60026;SDS011;45891;53.006;6.512;2022-08-21T02:36:21;15.52;;;7.05;;
60026;SDS011;45891;53.006;6.512;2022-08-21T02:38:47;13.98;;;6.78;;
60026;SDS011;45891;53.006;6.512;2022-08-21T02:41:14;14.55;;;7.30;;
60026;SDS011;45891;53.006;6.512;2022-08-21T02:43:43;15.48;;;6.97;;
60026;SDS011;45891;53.006;6.512;2022-08-21T02:46:10;15.13;;;6.82;;
60026;SDS011;45891;53.006;6.512;2022-08-21T02:48:38;15.57;;;7.07;;
60026;SDS011;45891;53.006;6.512;2022-08-21T02:51:06;14.52;;;6.80;;
60026;SDS011;45891;53.006;6.512;2022-08-21T02:53:37;17.10;;;7.13;;
60026;SDS011;45891;53.006;6.512;2022-08-21T02:56:06;16.77;;;7.87;;
60026;SDS011;45891;53.006;6.512;2022-08-21T02:58:37;14.93;;;7.20;;
60026;SDS011;45891;53.006;6.512;2022-08-21T03:01:07;12.60;;;6.40;;
60026;SDS011;45891;53.006;6.512;2022-08-21T03:03:35;18.63;;;7.18;;
60026;SDS011;45891;53.006;6.512;2022-08-21T03:06:03;16.80;;;6.93;;
60026;SDS011;45891;53.006;6.512;2022-08-21T03:08:30;12.90;;;5.95;;
60026;SDS011;45891;53.006;6.512;2022-08-21T03:10:56;15.98;;;6.90;;
60026;SDS011;45891;53.006;6.512;2022-08-21T03:13:22;13.13;;;6.18;;
60026;SDS011;45891;53.006;6.512;2022-08-21T03:15:49;14.43;;;6.90;;
60026;SDS011;45891;53.006;6.512;2022-08-21T03:18:15;14.18;;;6.45;;
60026;SDS011;45891;53.006;6.512;2022-08-21T03:20:42;14.38;;;5.93;;
60026;SDS011;45891;53.006;6.512;2022-08-21T03:23:10;15.20;;;6.57;;
60026;SDS011;45891;53.006;6.512;2022-08-21T03:25:37;14.30;;;6.30;;
60026;SDS011;45891;53.006;6.512;2022-08-21T03:28:05;13.47;;;5.77;;
60026;SDS011;45891;53.006;6.512;2022-08-21T03:30:35;12.40;;;6.20;;
60026;SDS011;45891;53.006;6.512;2022-08-21T03:33:02;14.13;;;7.07;;
60026;SDS011;45891;53.006;6.512;2022-08-21T03:35:28;12.55;;;6.50;;
60026;SDS011;45891;53.006;6.512;2022-08-21T03:37:55;14.60;;;6.67;;
60026;SDS011;45891;53.006;6.512;2022-08-21T03:40:21;14.32;;;7.10;;
60026;SDS011;45891;53.006;6.512;2022-08-21T03:42:49;14.48;;;6.47;;
60026;SDS011;45891;53.006;6.512;2022-08-21T03:45:16;14.60;;;6.82;;
60026;SDS011;45891;53.006;6.512;2022-08-21T03:50:23;14.18;;;6.60;;
60026;SDS011;45891;53.006;6.512;2022-08-21T03:52:51;15.20;;;7.18;;
60026;SDS011;45891;53.006;6.512;2022-08-21T03:55:17;14.05;;;6.55;;
60026;SDS011;45891;53.006;6.512;2022-08-21T03:57:43;15.18;;;6.88;;
60026;SDS011;45891;53.006;6.512;2022-08-21T04:00:12;14.85;;;6.68;;
60026;SDS011;45891;53.006;6.512;2022-08-21T04:02:40;16.08;;;6.30;;
60026;SDS011;45891;53.006;6.512;2022-08-21T04:05:09;16.40;;;6.63;;
60026;SDS011;45891;53.006;6.512;2022-08-21T04:07:36;16.33;;;6.90;;
60026;SDS011;45891;53.006;6.512;2022-08-21T04:10:03;13.52;;;6.40;;
60026;SDS011;45891;53.006;6.512;2022-08-21T04:12:31;12.27;;;6.53;;
60026;SDS011;45891;53.006;6.512;2022-08-21T04:14:57;14.50;;;6.03;;
60026;SDS011;45891;53.006;6.512;2022-08-21T04:17:23;15.15;;;6.75;;
60026;SDS011;45891;53.006;6.512;2022-08-21T04:19:49;16.60;;;6.40;;
60026;SDS011;45891;53.006;6.512;2022-08-21T04:22:16;16.65;;;6.35;;
60026;SDS011;45891;53.006;6.512;2022-08-21T04:24:42;13.80;;;5.85;;
60026;SDS011;45891;53.006;6.512;2022-08-21T04:27:08;14.23;;;6.13;;
60026;SDS011;45891;53.006;6.512;2022-08-21T04:29:34;12.95;;;5.68;;
60026;SDS011;45891;53.006;6.512;2022-08-21T04:32:00;14.52;;;5.90;;
60026;SDS011;45891;53.006;6.512;2022-08-21T04:34:27;15.07;;;5.40;;
60026;SDS011;45891;53.006;6.512;2022-08-21T04:36:53;16.45;;;5.78;;
60026;SDS011;45891;53.006;6.512;2022-08-21T04:39:19;13.30;;;5.68;;
60026;SDS011;45891;53.006;6.512;2022-08-21T04:41:45;14.20;;;5.97;;
60026;SDS011;45891;53.006;6.512;2022-08-21T04:44:11;15.82;;;6.03;;
60026;SDS011;45891;53.006;6.512;2022-08-21T04:46:37;15.20;;;6.18;;
60026;SDS011;45891;53.006;6.512;2022-08-21T04:49:03;10.73;;;5.53;;
60026;SDS011;45891;53.006;6.512;2022-08-21T04:51:31;13.27;;;5.50;;
60026;SDS011;45891;53.006;6.512;2022-08-21T04:54:09;13.88;;;5.72;;
60026;SDS011;45891;53.006;6.512;2022-08-21T04:56:51;14.40;;;5.60;;
60026;SDS011;45891;53.006;6.512;2022-08-21T04:59:26;16.70;;;6.43;;
60026;SDS011;45891;53.006;6.512;2022-08-21T05:01:55;13.10;;;5.88;;
60026;SDS011;45891;53.006;6.512;2022-08-21T05:04:22;13.35;;;5.63;;
60026;SDS011;45891;53.006;6.512;2022-08-21T05:06:52;14.35;;;5.97;;
60026;SDS011;45891;53.006;6.512;2022-08-21T05:09:22;16.93;;;5.97;;
60026;SDS011;45891;53.006;6.512;2022-08-21T05:11:50;15.68;;;5.85;;
60026;SDS011;45891;53.006;6.512;2022-08-21T05:14:17;14.95;;;5.72;;
60026;SDS011;45891;53.006;6.512;2022-08-21T05:16:45;13.90;;;5.78;;
60026;SDS011;45891;53.006;6.512;2022-08-21T05:19:12;13.75;;;5.82;;
60026;SDS011;45891;53.006;6.512;2022-08-21T05:21:40;14.32;;;5.82;;
60026;SDS011;45891;53.006;6.512;2022-08-21T05:24:08;13.77;;;5.68;;
60026;SDS011;45891;53.006;6.512;2022-08-21T05:26:35;14.75;;;5.93;;
60026;SDS011;45891;53.006;6.512;2022-08-21T05:29:02;13.55;;;5.38;;
60026;SDS011;45891;53.006;6.512;2022-08-21T05:31:29;14.82;;;5.43;;
60026;SDS011;45891;53.006;6.512;2022-08-21T05:33:55;13.82;;;5.68;;
60026;SDS011;45891;53.006;6.512;2022-08-21T05:36:22;13.45;;;5.60;;
60026;SDS011;45891;53.006;6.512;2022-08-21T05:38:48;14.38;;;5.63;;
60026;SDS011;45891;53.006;6.512;2022-08-21T05:41:15;16.17;;;5.10;;
60026;SDS011;45891;53.006;6.512;2022-08-21T05:43:42;14.48;;;5.18;;
60026;SDS011;45891;53.006;6.512;2022-08-21T05:46:08;14.32;;;5.13;;
60026;SDS011;45891;53.006;6.512;2022-08-21T05:48:35;13.15;;;5.10;;
60026;SDS011;45891;53.006;6.512;2022-08-21T05:51:08;17.02;;;6.03;;
60026;SDS011;45891;53.006;6.512;2022-08-21T05:53:36;14.55;;;5.28;;
60026;SDS011;45891;53.006;6.512;2022-08-21T05:56:04;12.75;;;5.30;;
60026;SDS011;45891;53.006;6.512;2022-08-21T05:58:31;14.68;;;5.38;;
60026;SDS011;45891;53.006;6.512;2022-08-21T06:00:58;15.32;;;5.25;;
60026;SDS011;45891;53.006;6.512;2022-08-21T06:03:27;13.60;;;4.60;;
60026;SDS011;45891;53.006;6.512;2022-08-21T06:05:55;15.85;;;5.25;;
60026;SDS011;45891;53.006;6.512;2022-08-21T06:08:22;15.15;;;4.93;;
60026;SDS011;45891;53.006;6.512;2022-08-21T06:10:50;16.67;;;5.00;;
60026;SDS011;45891;53.006;6.512;2022-08-21T06:13:17;14.50;;;4.60;;
60026;SDS011;45891;53.006;6.512;2022-08-21T06:15:45;12.70;;;4.90;;
60026;SDS011;45891;53.006;6.512;2022-08-21T06:18:11;16.08;;;4.90;;
60026;SDS011;45891;53.006;6.512;2022-08-21T06:20:38;16.40;;;4.80;;
60026;SDS011;45891;53.006;6.512;2022-08-21T06:23:05;14.63;;;4.47;;
60026;SDS011;45891;53.006;6.512;2022-08-21T06:25:31;14.20;;;4.78;;
60026;SDS011;45891;53.006;6.512;2022-08-21T06:28:07;13.48;;;4.75;;
60026;SDS011;45891;53.006;6.512;2022-08-21T06:30:35;13.00;;;4.22;;
60026;SDS011;45891;53.006;6.512;2022-08-21T06:33:03;16.85;;;4.72;;
60026;SDS011;45891;53.006;6.512;2022-08-21T06:35:30;11.48;;;3.70;;
60026;SDS011;45891;53.006;6.512;2022-08-21T06:37:56;13.38;;;3.92;;
60026;SDS011;45891;53.006;6.512;2022-08-21T06:40:23;12.75;;;4.32;;
60026;SDS011;45891;53.006;6.512;2022-08-21T06:42:50;12.80;;;4.35;;
60026;SDS011;45891;53.006;6.512;2022-08-21T06:45:16;14.40;;;4.13;;
60026;SDS011;45891;53.006;6.512;2022-08-21T06:47:42;13.57;;;3.70;;
60026;SDS011;45891;53.006;6.512;2022-08-21T06:50:08;13.55;;;4.00;;
60026;SDS011;45891;53.006;6.512;2022-08-21T06:52:36;11.23;;;3.55;;
60026;SDS011;45891;53.006;6.512;2022-08-21T06:55:04;11.90;;;3.60;;
60026;SDS011;45891;53.006;6.512;2022-08-21T06:57:33;12.00;;;3.47;;
60026;SDS011;45891;53.006;6.512;2022-08-21T06:59:59;12.25;;;3.42;;
60026;SDS011;45891;53.006;6.512;2022-08-21T07:02:25;11.30;;;2.90;;
60026;SDS011;45891;53.006;6.512;2022-08-21T07:04:51;14.10;;;3.28;;
60026;SDS011;45891;53.006;6.512;2022-08-21T07:07:18;13.30;;;3.50;;
60026;SDS011;45891;53.006;6.512;2022-08-21T07:09:44;11.23;;;3.22;;
60026;SDS011;45891;53.006;6.512;2022-08-21T07:12:10;13.57;;;2.95;;
60026;SDS011;45891;53.006;6.512;2022-08-21T07:14:36;11.95;;;2.95;;
60026;SDS011;45891;53.006;6.512;2022-08-21T07:17:02;10.88;;;2.80;;
60026;SDS011;45891;53.006;6.512;2022-08-21T07:19:28;12.73;;;3.20;;
60026;SDS011;45891;53.006;6.512;2022-08-21T07:21:57;15.80;;;3.22;;
60026;SDS011;45891;53.006;6.512;2022-08-21T07:24:25;11.05;;;2.78;;
60026;SDS011;45891;53.006;6.512;2022-08-21T07:26:51;9.70;;;2.40;;
60026;SDS011;45891;53.006;6.512;2022-08-21T07:29:18;12.00;;;2.67;;
60026;SDS011;45891;53.006;6.512;2022-08-21T07:31:44;9.20;;;2.50;;
60026;SDS011;45891;53.006;6.512;2022-08-21T07:34:10;10.55;;;2.40;;
60026;SDS011;45891;53.006;6.512;2022-08-21T07:36:36;12.27;;;3.10;;
60026;SDS011;45891;53.006;6.512;2022-08-21T07:39:02;10.57;;;2.90;;
60026;SDS011;45891;53.006;6.512;2022-08-21T07:41:29;15.07;;;3.00;;
60026;SDS011;45891;53.006;6.512;2022-08-21T07:43:56;13.40;;;2.63;;
60026;SDS011;45891;53.006;6.512;2022-08-21T07:46:22;11.73;;;2.40;;
60026;SDS011;45891;53.006;6.512;2022-08-21T07:48:50;11.65;;;2.40;;
60026;SDS011;45891;53.006;6.512;2022-08-21T07:51:17;12.85;;;2.67;;
60026;SDS011;45891;53.006;6.512;2022-08-21T07:53:47;11.35;;;2.55;;
60026;SDS011;45891;53.006;6.512;2022-08-21T07:56:15;10.65;;;2.50;;
60026;SDS011;45891;53.006;6.512;2022-08-21T07:58:41;9.30;;;2.40;;
60026;SDS011;45891;53.006;6.512;2022-08-21T08:01:08;12.33;;;2.47;;
60026;SDS011;45891;53.006;6.512;2022-08-21T08:03:34;12.05;;;2.58;;
60026;SDS011;45891;53.006;6.512;2022-08-21T08:06:00;13.75;;;2.50;;
60026;SDS011;45891;53.006;6.512;2022-08-21T08:08:27;14.52;;;2.72;;
60026;SDS011;45891;53.006;6.512;2022-08-21T08:10:53;12.32;;;2.67;;
60026;SDS011;45891;53.006;6.512;2022-08-21T08:13:22;14.73;;;2.90;;
60026;SDS011;45891;53.006;6.512;2022-08-21T08:15:49;12.10;;;2.58;;
60026;SDS011;45891;53.006;6.512;2022-08-21T08:18:15;12.35;;;2.20;;
60026;SDS011;45891;53.006;6.512;2022-08-21T08:20:41;16.20;;;2.38;;
60026;SDS011;45891;53.006;6.512;2022-08-21T08:23:11;10.70;;;2.17;;
60026;SDS011;45891;53.006;6.512;2022-08-21T08:25:38;12.93;;;2.00;;
60026;SDS011;45891;53.006;6.512;2022-08-21T08:28:04;11.30;;;2.40;;
60026;SDS011;45891;53.006;6.512;2022-08-21T08:30:32;11.30;;;2.20;;
60026;SDS011;45891;53.006;6.512;2022-08-21T08:32:58;10.18;;;2.10;;
60026;SDS011;45891;53.006;6.512;2022-08-21T08:35:25;10.45;;;1.90;;
60026;SDS011;45891;53.006;6.512;2022-08-21T08:37:52;11.18;;;2.25;;
60026;SDS011;45891;53.006;6.512;2022-08-21T08:40:20;10.45;;;2.20;;
60026;SDS011;45891;53.006;6.512;2022-08-21T08:42:54;13.57;;;2.50;;
60026;SDS011;45891;53.006;6.512;2022-08-21T08:45:21;11.23;;;2.08;;
60026;SDS011;45891;53.006;6.512;2022-08-21T08:48:01;11.50;;;2.20;;
60026;SDS011;45891;53.006;6.512;2022-08-21T08:50:41;9.43;;;2.03;;
60026;SDS011;45891;53.006;6.512;2022-08-21T08:53:14;10.05;;;1.95;;
60026;SDS011;45891;53.006;6.512;2022-08-21T08:55:44;11.65;;;2.00;;
60026;SDS011;45891;53.006;6.512;2022-08-21T08:58:12;11.13;;;2.30;;
60026;SDS011;45891;53.006;6.512;2022-08-21T09:00:49;12.35;;;2.20;;
60026;SDS011;45891;53.006;6.512;2022-08-21T09:03:16;12.02;;;2.25;;
60026;SDS011;45891;53.006;6.512;2022-08-21T09:05:48;10.52;;;2.00;;
60026;SDS011;45891;53.006;6.512;2022-08-21T09:08:27;10.57;;;2.25;;
60026;SDS011;45891;53.006;6.512;2022-08-21T09:14:05;13.45;;;2.60;;
60026;SDS011;45891;53.006;6.512;2022-08-21T09:19:50;12.43;;;2.15;;
60026;SDS011;45891;53.006;6.512;2022-08-21T09:22:43;14.18;;;2.95;;
60026;SDS011;45891;53.006;6.512;2022-08-21T09:25:22;9.95;;;2.25;;
60026;SDS011;45891;53.006;6.512;2022-08-21T09:27:51;12.65;;;2.33;;
60026;SDS011;45891;53.006;6.512;2022-08-21T09:30:19;10.40;;;2.22;;
60026;SDS011;45891;53.006;6.512;2022-08-21T09:32:50;9.77;;;2.10;;
60026;SDS011;45891;53.006;6.512;2022-08-21T09:35:18;10.35;;;2.05;;
60026;SDS011;45891;53.006;6.512;2022-08-21T09:42:57;10.87;;;2.03;;
60026;SDS011;45891;53.006;6.512;2022-08-21T09:45:25;10.70;;;2.27;;
60026;SDS011;45891;53.006;6.512;2022-08-21T09:47:51;12.15;;;2.30;;
60026;SDS011;45891;53.006;6.512;2022-08-21T09:50:20;11.82;;;2.22;;
60026;SDS011;45891;53.006;6.512;2022-08-21T09:52:55;12.15;;;2.10;;
60026;SDS011;45891;53.006;6.512;2022-08-21T09:58:29;15.18;;;2.38;;
60026;SDS011;45891;53.006;6.512;2022-08-21T10:00:59;12.05;;;2.28;;
60026;SDS011;45891;53.006;6.512;2022-08-21T10:03:26;10.82;;;2.22;;
60026;SDS011;45891;53.006;6.512;2022-08-21T10:05:57;10.82;;;2.00;;
60026;SDS011;45891;53.006;6.512;2022-08-21T10:08:31;12.90;;;2.45;;
60026;SDS011;45891;53.006;6.512;2022-08-21T10:11:09;13.50;;;2.40;;
60026;SDS011;45891;53.006;6.512;2022-08-21T10:13:51;12.10;;;2.20;;
60026;SDS011;45891;53.006;6.512;2022-08-21T10:16:43;12.25;;;2.47;;
60026;SDS011;45891;53.006;6.512;2022-08-21T10:24:51;12.45;;;2.25;;
60026;SDS011;45891;53.006;6.512;2022-08-21T10:27:34;11.02;;;1.98;;
60026;SDS011;45891;53.006;6.512;2022-08-21T10:30:21;10.40;;;2.20;;
60026;SDS011;45891;53.006;6.512;2022-08-21T10:35:27;11.32;;;2.47;;
60026;SDS011;45891;53.006;6.512;2022-08-21T10:43:25;10.07;;;2.10;;
60026;SDS011;45891;53.006;6.512;2022-08-21T10:48:39;8.80;;;1.80;;
60026;SDS011;45891;53.006;6.512;2022-08-21T10:51:35;10.40;;;2.15;;
60026;SDS011;45891;53.006;6.512;2022-08-21T10:54:32;11.07;;;2.20;;
60026;SDS011;45891;53.006;6.512;2022-08-21T10:57:16;11.02;;;2.08;;
60026;SDS011;45891;53.006;6.512;2022-08-21T11:00:06;12.00;;;2.15;;
60026;SDS011;45891;53.006;6.512;2022-08-21T11:02:57;10.75;;;2.28;;
60026;SDS011;45891;53.006;6.512;2022-08-21T11:05:43;11.10;;;2.10;;
60026;SDS011;45891;53.006;6.512;2022-08-21T11:08:23;10.13;;;2.08;;
60026;SDS011;45891;53.006;6.512;2022-08-21T11:10:59;12.95;;;2.20;;
60026;SDS011;45891;53.006;6.512;2022-08-21T11:16:22;8.75;;;1.75;;
60026;SDS011;45891;53.006;6.512;2022-08-21T11:19:19;11.70;;;2.22;;
60026;SDS011;45891;53.006;6.512;2022-08-21T11:30:23;10.70;;;1.98;;
60026;SDS011;45891;53.006;6.512;2022-08-21T11:33:00;10.63;;;1.95;;
60026;SDS011;45891;53.006;6.512;2022-08-21T11:35:39;10.57;;;2.10;;
60026;SDS011;45891;53.006;6.512;2022-08-21T11:41:13;10.85;;;2.30;;
60026;SDS011;45891;53.006;6.512;2022-08-21T11:43:59;9.45;;;1.90;;
60026;SDS011;45891;53.006;6.512;2022-08-21T11:52:22;12.82;;;2.40;;
60026;SDS011;45891;53.006;6.512;2022-08-21T11:54:57;10.35;;;2.10;;
60026;SDS011;45891;53.006;6.512;2022-08-21T11:57:36;8.52;;;1.98;;
60026;SDS011;45891;53.006;6.512;2022-08-21T12:00:20;11.85;;;2.40;;
60026;SDS011;45891;53.006;6.512;2022-08-21T12:03:37;13.35;;;2.55;;
60026;SDS011;45891;53.006;6.512;2022-08-21T12:05:58;8.73;;;2.03;;
60026;SDS011;45891;53.006;6.512;2022-08-21T12:08:29;11.45;;;2.20;;
60026;SDS011;45891;53.006;6.512;2022-08-21T12:16:34;14.30;;;2.30;;
60026;SDS011;45891;53.006;6.512;2022-08-21T12:21:51;11.73;;;2.45;;
60026;SDS011;45891;53.006;6.512;2022-08-21T12:29:48;10.23;;;2.20;;
60026;SDS011;45891;53.006;6.512;2022-08-21T12:40:03;12.20;;;2.33;;
60026;SDS011;45891;53.006;6.512;2022-08-21T12:42:41;10.80;;;2.15;;
60026;SDS011;45891;53.006;6.512;2022-08-21T12:45:23;11.80;;;2.47;;
60026;SDS011;45891;53.006;6.512;2022-08-21T12:48:23;12.10;;;2.30;;
60026;SDS011;45891;53.006;6.512;2022-08-21T12:50:58;9.32;;;2.25;;
60026;SDS011;45891;53.006;6.512;2022-08-21T12:56:11;12.00;;;2.30;;
60026;SDS011;45891;53.006;6.512;2022-08-21T12:58:40;9.93;;;2.50;;
60026;SDS011;45891;53.006;6.512;2022-08-21T13:01:52;15.23;;;2.90;;
60026;SDS011;45891;53.006;6.512;2022-08-21T13:04:11;12.65;;;2.45;;
60026;SDS011;45891;53.006;6.512;2022-08-21T13:06:47;9.90;;;2.10;;
60026;SDS011;45891;53.006;6.512;2022-08-21T13:11:46;11.57;;;2.20;;
60026;SDS011;45891;53.006;6.512;2022-08-21T13:14:25;11.05;;;2.65;;
60026;SDS011;45891;53.006;6.512;2022-08-21T13:16:58;14.60;;;2.35;;
60026;SDS011;45891;53.006;6.512;2022-08-21T13:19:26;11.15;;;2.45;;
60026;SDS011;45891;53.006;6.512;2022-08-21T13:21:55;12.43;;;2.15;;
60026;SDS011;45891;53.006;6.512;2022-08-21T13:24:25;11.07;;;2.40;;
60026;SDS011;45891;53.006;6.512;2022-08-21T13:26:56;13.25;;;2.17;;
60026;SDS011;45891;53.006;6.512;2022-08-21T13:29:26;11.85;;;2.20;;
60026;SDS011;45891;53.006;6.512;2022-08-21T13:31:58;12.05;;;2.35;;
60026;SDS011;45891;53.006;6.512;2022-08-21T13:34:35;12.30;;;2.50;;
60026;SDS011;45891;53.006;6.512;2022-08-21T13:37:06;11.07;;;2.00;;
60026;SDS011;45891;53.006;6.512;2022-08-21T13:39:34;10.93;;;2.60;;
60026;SDS011;45891;53.006;6.512;2022-08-21T13:42:01;10.57;;;2.40;;
60026;SDS011;45891;53.006;6.512;2022-08-21T13:46:56;12.00;;;2.10;;
60026;SDS011;45891;53.006;6.512;2022-08-21T13:49:31;11.40;;;2.20;;
60026;SDS011;45891;53.006;6.512;2022-08-21T13:52:00;11.70;;;2.50;;
60026;SDS011;45891;53.006;6.512;2022-08-21T13:54:29;10.60;;;2.00;;
60026;SDS011;45891;53.006;6.512;2022-08-21T13:57:01;10.90;;;2.20;;
60026;SDS011;45891;53.006;6.512;2022-08-21T13:59:29;12.02;;;2.10;;
60026;SDS011;45891;53.006;6.512;2022-08-21T14:01:59;11.45;;;2.30;;
60026;SDS011;45891;53.006;6.512;2022-08-21T14:04:39;12.65;;;2.20;;
60026;SDS011;45891;53.006;6.512;2022-08-21T14:07:22;9.25;;;2.22;;
60026;SDS011;45891;53.006;6.512;2022-08-21T14:09:52;10.68;;;2.00;;
60026;SDS011;45891;53.006;6.512;2022-08-21T14:12:24;9.45;;;2.20;;
60026;SDS011;45891;53.006;6.512;2022-08-21T14:14:53;11.65;;;2.17;;
60026;SDS011;45891;53.006;6.512;2022-08-21T14:17:27;8.55;;;1.88;;
60026;SDS011;45891;53.006;6.512;2022-08-21T14:19:55;9.98;;;2.20;;
60026;SDS011;45891;53.006;6.512;2022-08-21T14:25:12;8.32;;;1.85;;
60026;SDS011;45891;53.006;6.512;2022-08-21T14:27:51;8.85;;;1.95;;
60026;SDS011;45891;53.006;6.512;2022-08-21T14:30:34;9.63;;;2.00;;
60026;SDS011;45891;53.006;6.512;2022-08-21T14:33:02;10.15;;;2.20;;
60026;SDS011;45891;53.006;6.512;2022-08-21T14:35:30;9.15;;;1.92;;
60026;SDS011;45891;53.006;6.512;2022-08-21T14:37:56;8.45;;;1.77;;
60026;SDS011;45891;53.006;6.512;2022-08-21T14:40:23;10.45;;;1.90;;
60026;SDS011;45891;53.006;6.512;2022-08-21T14:42:50;12.25;;;2.28;;
60026;SDS011;45891;53.006;6.512;2022-08-21T14:45:18;9.55;;;2.03;;
60026;SDS011;45891;53.006;6.512;2022-08-21T14:47:45;11.32;;;2.00;;
60026;SDS011;45891;53.006;6.512;2022-08-21T14:50:12;9.98;;;2.05;;
60026;SDS011;45891;53.006;6.512;2022-08-21T14:52:39;9.38;;;2.15;;
60026;SDS011;45891;53.006;6.512;2022-08-21T14:55:06;10.07;;;2.38;;
60026;SDS011;45891;53.006;6.512;2022-08-21T14:57:36;10.63;;;1.90;;
60026;SDS011;45891;53.006;6.512;2022-08-21T15:00:03;8.93;;;2.03;;
60026;SDS011;45891;53.006;6.512;2022-08-21T15:02:31;9.50;;;2.00;;
60026;SDS011;45891;53.006;6.512;2022-08-21T15:04:57;10.73;;;1.85;;
60026;SDS011;45891;53.006;6.512;2022-08-21T15:07:23;9.90;;;2.13;;
60026;SDS011;45891;53.006;6.512;2022-08-21T15:09:49;9.98;;;1.75;;
60026;SDS011;45891;53.006;6.512;2022-08-21T15:12:15;7.93;;;1.60;;
60026;SDS011;45891;53.006;6.512;2022-08-21T15:14:41;10.30;;;2.13;;
60026;SDS011;45891;53.006;6.512;2022-08-21T15:17:08;9.48;;;2.00;;
60026;SDS011;45891;53.006;6.512;2022-08-21T15:19:35;11.07;;;2.08;;
60026;SDS011;45891;53.006;6.512;2022-08-21T15:22:02;10.63;;;2.00;;
60026;SDS011;45891;53.006;6.512;2022-08-21T15:24:29;10.45;;;2.13;;
60026;SDS011;45891;53.006;6.512;2022-08-21T15:26:55;9.77;;;2.10;;
60026;SDS011;45891;53.006;6.512;2022-08-21T15:29:24;8.07;;;1.50;;
60026;SDS011;45891;53.006;6.512;2022-08-21T15:34:29;9.05;;;1.92;;
60026;SDS011;45891;53.006;6.512;2022-08-21T15:36:56;9.35;;;1.98;;
60026;SDS011;45891;53.006;6.512;2022-08-21T15:39:24;10.55;;;2.30;;
60026;SDS011;45891;53.006;6.512;2022-08-21T15:41:51;10.52;;;2.03;;
60026;SDS011;45891;53.006;6.512;2022-08-21T15:44:18;11.63;;;2.17;;
60026;SDS011;45891;53.006;6.512;2022-08-21T15:46:45;9.73;;;2.30;;
60026;SDS011;45891;53.006;6.512;2022-08-21T15:49:11;11.27;;;2.30;;
60026;SDS011;45891;53.006;6.512;2022-08-21T15:51:37;9.95;;;2.17;;
60026;SDS011;45891;53.006;6.512;2022-08-21T15:54:03;9.73;;;1.73;;
60026;SDS011;45891;53.006;6.512;2022-08-21T15:56:33;9.10;;;1.80;;
60026;SDS011;45891;53.006;6.512;2022-08-21T15:59:04;11.13;;;2.47;;
60026;SDS011;45891;53.006;6.512;2022-08-21T16:01:33;10.52;;;2.30;;
60026;SDS011;45891;53.006;6.512;2022-08-21T16:04:01;12.45;;;3.17;;
60026;SDS011;45891;53.006;6.512;2022-08-21T16:06:28;11.02;;;2.20;;
60026;SDS011;45891;53.006;6.512;2022-08-21T16:08:54;10.30;;;2.60;;
60026;SDS011;45891;53.006;6.512;2022-08-21T16:11:20;10.57;;;2.35;;
60026;SDS011;45891;53.006;6.512;2022-08-21T16:13:47;14.70;;;4.57;;
60026;SDS011;45891;53.006;6.512;2022-08-21T16:16:23;11.35;;;2.53;;
60026;SDS011;45891;53.006;6.512;2022-08-21T16:18:50;11.45;;;2.58;;